Brazos 451, TX

2:57 PM CST on December 14, 2018 (GMT -0600)
Brazos 451 | | Change Station
Active Advisory: Wind Advisory

Elev 0 ft 28.49 °N, 95.72 °W | Updated 2 hours ago

Overcast
Overcast
52 °F
Feels Like 52 °F
N
25
Wind Variable Wind from WNW

Today
High -- | Low -- °F
--% Chance of Precip.
Yesterday
High -- | Low -- °F
Precip. -- in
Pressure 29.99 in
Visibility 10.0 miles
Clouds Overcast 3200 ft
Dew Point 41 °F
Humidity 67%
Rainfall 0.00 in
Snow Depth Not available.
7:07 AM 5:28 PM
Waxing Crescent, 44% visible
METAR KBQX 141855Z AUTO 30022KT 10SM OVC032 11/05 A2999 RMK A01
Pressure 29.99 in
Visibility 10.0 miles
Clouds Overcast 3200 ft
Dew Point 41 °F
Humidity 67%
Rainfall 0.00 in
Snow Depth Not available.
7:07 AM 5:28 PM
Waxing Crescent, 44% visible
METAR KBQX 141855Z AUTO 30022KT 10SM OVC032 11/05 A2999 RMK A01

Get Your Daily Forecast Email!

Thanks for signing up!

Be on the lookout for a verification email in your inbox.

You'll start receiving severe weather alerts in your inbox..

×

10-Day Weather Forecast

Almanac

Astronomy

Dec. 14, 2018 Rise Set
Actual Time
Civil Twilight
Nautical Twilight
Astronomical Twilight
Moon
Length of Visible Light
Length of Day
Tomorrow will be .
, % of the Moon is Illuminated

Today's Extremes

State Highs State Lows

Community

WunderPhotos

Category 6

Welcome to Category 6. This is the collective home for Weather Underground's featured writeups by Dr. Jeff Masters (right), Bob Henson (left), Chris Burt, and other regular contributors.

Nearby

Air Quality

  Air Quality AQ Index Pollutant
Not available.

Snow Depth

Station Depth Elevation

Earthquake Activity

City Distance Mag. Time & Date
Minimum magnitude displayed is 2.5.

Coastal Water Temperatures

Place Temperature

Stations

Nearby Weather Stations

Station Location Temp. Windchill Dew Point Humidity Wind Precip. Elev Updated Type
                   

Watches & Warnings

Wind Advisory
Issued: 4:08 AM CST Dec. 14, 2018 – National Weather Service

... Wind Advisory in effect from 11 am this morning to 5 PM CST
this afternoon...

The National Weather Service in Houston/Galveston has issued a
Wind Advisory, which is in effect from 11 am this morning to 5 PM
CST this afternoon.

* Event... winds west to northwest 20 to 30 mph with occasional
gusts to near 40 mph.

* Timing... Thursday afternoon through Friday afternoon.

* Impact... loose objects outside may below away. Be sure to secure
any tents, canopies, patio furniture, bouncy houses, and high-
profile cranes. High profile vehicles on southwest to northeast
roads may experience strong cross winds.

Precautionary/preparedness actions...

Drivers of vans... campers... trailers... and other high-profile
vehicles should be alert to the danger of these winds...
especially when driving along southwest to northeast oriented
roads.